createdAt,value
2023-03-29T00:00:14.616Z,8.10
2023-03-29T00:03:04.318Z,7.30
2023-03-29T00:05:35.360Z,8.40
2023-03-29T00:08:04.704Z,8.30
2023-03-29T00:10:34.894Z,9.10
2023-03-29T00:13:03.536Z,8.90
2023-03-29T00:15:31.805Z,8.20
2023-03-29T00:18:00.462Z,7.90
2023-03-29T00:20:29.012Z,9.20
2023-03-29T00:22:57.529Z,8.90
2023-03-29T00:25:25.825Z,9.40
2023-03-29T00:27:54.021Z,7.70
2023-03-29T00:30:22.342Z,8.40
2023-03-29T00:32:51.643Z,7.30
2023-03-29T00:35:20.260Z,8.70
2023-03-29T00:37:51.049Z,9.00
2023-03-29T00:40:19.997Z,7.50
2023-03-29T00:42:48.611Z,6.40
2023-03-29T00:45:25.367Z,6.80
2023-03-29T00:48:04.367Z,8.20
2023-03-29T00:50:56.361Z,7.70
2023-03-29T00:53:33.970Z,7.20
2023-03-29T00:56:12.489Z,7.10
2023-03-29T00:58:55.844Z,7.10
2023-03-29T01:01:39.122Z,7.70
2023-03-29T01:04:19.855Z,6.90
2023-03-29T01:07:00.986Z,5.90
2023-03-29T01:09:33.201Z,6.60
2023-03-29T01:12:06.113Z,7.60
2023-03-29T01:14:56.700Z,8.60
2023-03-29T01:17:25.941Z,7.20
2023-03-29T01:20:17.738Z,6.50
2023-03-29T01:23:07.809Z,6.40
2023-03-29T01:25:54.749Z,7.10
2023-03-29T01:28:28.657Z,6.40
2023-03-29T01:31:08.529Z,6.60
2023-03-29T01:33:44.669Z,6.50
2023-03-29T01:36:19.501Z,6.50
2023-03-29T01:38:58.387Z,6.60
2023-03-29T01:41:51.448Z,6.40
2023-03-29T01:44:28.878Z,7.60
2023-03-29T01:47:17.724Z,7.90
2023-03-29T01:50:22.486Z,6.60
2023-03-29T01:53:02.446Z,6.00
2023-03-29T01:55:41.755Z,6.20
2023-03-29T01:58:13.239Z,6.40
2023-03-29T02:00:43.979Z,6.70
2023-03-29T02:03:15.073Z,5.80
2023-03-29T02:05:45.189Z,7.10
2023-03-29T02:08:15.616Z,6.20
2023-03-29T02:10:45.146Z,6.30
2023-03-29T02:13:13.485Z,6.70
2023-03-29T02:15:44.577Z,6.40
2023-03-29T02:22:10.470Z,5.70
2023-03-29T02:24:42.711Z,6.90
2023-03-29T02:27:11.260Z,7.10
2023-03-29T02:29:39.516Z,6.80
2023-03-29T02:32:34.418Z,6.60
2023-03-29T02:35:14.377Z,6.10
2023-03-29T02:37:46.503Z,5.30
2023-03-29T02:40:16.677Z,5.10
2023-03-29T02:42:46.319Z,6.00
2023-03-29T02:45:17.539Z,6.00
2023-03-29T02:47:51.874Z,6.10
2023-03-29T02:50:21.148Z,6.80
2023-03-29T02:52:59.975Z,6.50
2023-03-29T02:55:34.927Z,6.00
2023-03-29T02:58:08.398Z,6.60
2023-03-29T03:00:41.062Z,7.80
2023-03-29T03:03:10.513Z,7.50
2023-03-29T03:05:39.514Z,5.90
2023-03-29T03:11:50.951Z,6.20
2023-03-29T03:14:23.650Z,6.90
2023-03-29T03:16:53.065Z,6.20
2023-03-29T03:19:21.781Z,5.70
2023-03-29T03:21:51.960Z,7.00
2023-03-29T03:24:20.246Z,6.40
2023-03-29T03:26:48.592Z,6.90
2023-03-29T03:29:17.311Z,7.30
2023-03-29T03:32:04.994Z,6.80
2023-03-29T03:34:56.351Z,6.10
2023-03-29T03:37:28.017Z,6.00
2023-03-29T03:39:56.948Z,7.00
2023-03-29T03:42:29.127Z,7.30
2023-03-29T03:44:57.531Z,6.30
2023-03-29T03:47:44.314Z,7.50
2023-03-29T03:50:24.478Z,6.30
2023-03-29T03:52:52.897Z,6.70
2023-03-29T03:55:22.247Z,7.50
2023-03-29T03:57:53.720Z,7.50
2023-03-29T04:00:23.279Z,7.90
2023-03-29T04:03:07.118Z,6.30
2023-03-29T04:05:42.060Z,7.30
2023-03-29T04:08:12.849Z,6.80
2023-03-29T04:11:08.506Z,8.60
2023-03-29T04:13:39.926Z,8.10
2023-03-29T04:16:27.761Z,7.40
2023-03-29T04:18:57.228Z,7.80
2023-03-29T04:21:26.426Z,6.60
2023-03-29T04:23:54.922Z,7.10
2023-03-29T04:26:28.194Z,7.90
2023-03-29T04:29:03.767Z,8.00
2023-03-29T04:31:42.071Z,7.40
2023-03-29T04:34:16.872Z,7.60
2023-03-29T04:36:46.057Z,6.20
2023-03-29T04:39:19.717Z,7.10
2023-03-29T04:41:51.796Z,8.20
2023-03-29T04:44:28.367Z,6.60
2023-03-29T04:47:00.452Z,7.00
2023-03-29T04:49:47.961Z,7.30
2023-03-29T04:52:24.531Z,7.40
2023-03-29T04:54:53.764Z,7.20
2023-03-29T04:57:41.938Z,6.90
2023-03-29T05:00:20.514Z,6.70
2023-03-29T05:03:04.650Z,6.20
2023-03-29T05:05:35.922Z,7.90
2023-03-29T05:08:04.899Z,8.80
2023-03-29T05:10:44.906Z,8.20
2023-03-29T05:13:13.929Z,7.30
2023-03-29T05:15:43.415Z,8.10
2023-03-29T05:18:12.471Z,7.30
2023-03-29T05:20:42.450Z,6.70
2023-03-29T05:23:12.738Z,8.10
2023-03-29T05:26:08.867Z,7.10
2023-03-29T05:28:39.765Z,8.10
2023-03-29T05:31:09.485Z,9.40
2023-03-29T05:33:40.807Z,6.00
2023-03-29T05:36:15.744Z,8.60
2023-03-29T05:38:47.352Z,8.80
2023-03-29T05:41:18.003Z,9.00
2023-03-29T05:44:04.954Z,8.30
2023-03-29T05:46:35.868Z,8.20
2023-03-29T05:49:05.499Z,8.20
2023-03-29T05:51:58.602Z,8.50
2023-03-29T05:54:27.444Z,9.10
2023-03-29T05:56:56.049Z,7.40
2023-03-29T05:59:24.605Z,7.50
2023-03-29T06:01:53.120Z,7.30
2023-03-29T06:04:22.778Z,7.30
2023-03-29T06:07:12.775Z,7.30
2023-03-29T06:09:42.394Z,7.80
2023-03-29T06:12:12.385Z,7.40
2023-03-29T06:15:05.202Z,7.10
2023-03-29T06:17:40.670Z,6.30
2023-03-29T06:20:13.087Z,7.00
2023-03-29T06:22:43.836Z,6.50
2023-03-29T06:25:16.959Z,7.80
2023-03-29T06:27:48.120Z,8.60
2023-03-29T06:30:19.608Z,7.30
2023-03-29T06:32:53.373Z,7.30
2023-03-29T06:35:46.774Z,7.20
2023-03-29T06:38:18.473Z,6.70
2023-03-29T06:41:13.086Z,6.30
2023-03-29T06:44:18.923Z,5.90
2023-03-29T06:46:56.435Z,6.50
2023-03-29T06:49:26.497Z,7.00
2023-03-29T06:52:13.220Z,6.50
2023-03-29T06:54:42.475Z,6.70
2023-03-29T06:57:13.408Z,6.70
2023-03-29T06:59:43.207Z,6.70
2023-03-29T07:02:22.835Z,4.90
2023-03-29T07:05:01.687Z,6.50
2023-03-29T07:07:53.484Z,6.80
2023-03-29T07:10:45.864Z,7.00
2023-03-29T07:13:34.223Z,6.20
2023-03-29T07:16:05.593Z,6.60
2023-03-29T07:18:44.247Z,5.20
2023-03-29T07:21:17.716Z,4.80
2023-03-29T07:23:46.227Z,5.40
2023-03-29T07:26:14.838Z,4.00
2023-03-29T07:28:57.734Z,4.80
2023-03-29T07:31:28.813Z,5.80
2023-03-29T07:34:06.860Z,5.50
2023-03-29T07:36:35.271Z,5.90
2023-03-29T07:39:04.499Z,4.70
2023-03-29T07:41:36.269Z,4.70
2023-03-29T07:44:23.637Z,4.90
2023-03-29T07:46:52.675Z,5.60
2023-03-29T07:49:22.267Z,5.30
2023-03-29T07:51:51.181Z,5.40
2023-03-29T07:54:19.940Z,5.50
2023-03-29T07:56:54.586Z,6.20
2023-03-29T07:59:36.777Z,4.60
2023-03-29T08:02:11.934Z,4.40
2023-03-29T08:04:43.007Z,5.20
2023-03-29T08:07:21.982Z,4.20
2023-03-29T08:10:07.042Z,5.00
2023-03-29T08:13:07.644Z,5.10
2023-03-29T08:16:14.967Z,4.50
2023-03-29T08:18:49.103Z,4.80
2023-03-29T08:21:18.014Z,4.90
2023-03-29T08:23:49.103Z,4.60
2023-03-29T08:26:22.607Z,4.60
2023-03-29T08:28:51.227Z,3.90
2023-03-29T08:31:21.114Z,4.10
2023-03-29T08:33:49.738Z,4.10
2023-03-29T08:36:37.932Z,4.70
2023-03-29T08:39:12.382Z,4.30
2023-03-29T08:41:58.110Z,4.30
2023-03-29T08:44:43.248Z,4.90
2023-03-29T08:47:56.146Z,3.60
2023-03-29T08:50:32.999Z,3.20
2023-03-29T08:53:24.170Z,3.70
2023-03-29T08:56:33.553Z,3.80
2023-03-29T08:59:23.557Z,4.20
2023-03-29T09:01:56.373Z,3.30
2023-03-29T09:04:33.779Z,3.70
2023-03-29T09:07:34.679Z,4.20
2023-03-29T09:10:04.008Z,3.40
2023-03-29T09:13:05.204Z,3.00
2023-03-29T09:16:01.795Z,3.30
2023-03-29T09:19:36.830Z,2.80
2023-03-29T09:22:28.988Z,2.90
2023-03-29T09:25:06.651Z,3.20
2023-03-29T09:27:51.598Z,3.90
2023-03-29T09:30:32.896Z,3.30
2023-03-29T09:33:44.033Z,2.20
2023-03-29T09:36:39.269Z,2.40
2023-03-29T09:39:11.737Z,2.20
2023-03-29T09:42:05.783Z,2.60
2023-03-29T09:44:44.758Z,2.70
2023-03-29T09:47:28.703Z,2.30
2023-03-29T09:50:27.222Z,2.80
2023-03-29T09:53:02.918Z,3.40
2023-03-29T09:55:37.377Z,3.20
2023-03-29T09:58:28.800Z,3.30
2023-03-29T10:01:00.951Z,3.20
2023-03-29T10:03:32.601Z,3.60
2023-03-29T10:06:20.382Z,3.30
2023-03-29T10:09:06.673Z,3.30
2023-03-29T10:11:42.294Z,2.60
2023-03-29T10:14:26.341Z,2.90
2023-03-29T10:17:14.527Z,2.60
2023-03-29T10:20:04.332Z,2.50
2023-03-29T10:22:38.373Z,3.80
2023-03-29T10:25:15.075Z,2.50
2023-03-29T10:27:46.773Z,2.30
2023-03-29T10:30:23.583Z,2.90
2023-03-29T10:32:58.194Z,3.10
2023-03-29T10:35:33.756Z,2.60
2023-03-29T10:38:09.791Z,2.50
2023-03-29T10:40:49.407Z,3.00
2023-03-29T10:43:20.944Z,2.70
2023-03-29T10:45:55.998Z,3.20
2023-03-29T10:48:30.897Z,3.70
2023-03-29T10:51:08.301Z,3.10
2023-03-29T10:53:41.019Z,2.80
2023-03-29T10:56:14.325Z,3.60
2023-03-29T10:58:53.713Z,2.80
2023-03-29T11:01:35.075Z,2.20
2023-03-29T11:04:31.213Z,2.70
2023-03-29T11:07:27.356Z,2.90
2023-03-29T11:10:25.127Z,2.80
2023-03-29T11:13:20.319Z,3.00
2023-03-29T11:16:13.985Z,3.20
2023-03-29T11:18:48.358Z,3.60
2023-03-29T11:21:31.603Z,3.10
2023-03-29T11:24:14.300Z,3.60
2023-03-29T11:27:12.595Z,3.60
2023-03-29T11:29:50.611Z,4.10
2023-03-29T11:32:28.597Z,4.20
2023-03-29T11:35:12.502Z,3.90
2023-03-29T11:38:14.365Z,4.30
2023-03-29T11:40:43.006Z,3.90
2023-03-29T11:43:32.571Z,3.60
2023-03-29T11:46:18.000Z,3.50
2023-03-29T11:49:12.835Z,3.30
2023-03-29T11:51:47.063Z,3.80
2023-03-29T11:54:25.717Z,3.60
2023-03-29T11:57:07.130Z,4.00
2023-03-29T11:59:55.690Z,4.00
2023-03-29T12:02:38.302Z,4.40
2023-03-29T12:05:35.008Z,4.50
2023-03-29T12:08:46.611Z,4.10
2023-03-29T12:11:27.699Z,4.20
2023-03-29T12:14:03.758Z,4.00
2023-03-29T12:16:37.814Z,4.40
2023-03-29T12:19:18.544Z,3.50
2023-03-29T12:21:48.650Z,4.20
2023-03-29T12:24:20.819Z,3.60
2023-03-29T12:26:55.121Z,3.80
2023-03-29T12:29:23.505Z,3.50
2023-03-29T12:32:13.505Z,4.00
2023-03-29T12:35:19.560Z,3.50
2023-03-29T12:38:14.275Z,4.00
2023-03-29T12:41:11.004Z,3.60
2023-03-29T12:44:22.848Z,3.30
2023-03-29T12:47:00.708Z,4.20
2023-03-29T12:49:36.151Z,4.50
2023-03-29T12:52:23.152Z,3.70
2023-03-29T12:55:00.542Z,3.30
2023-03-29T12:57:41.781Z,3.90
2023-03-29T13:00:42.893Z,3.20
2023-03-29T13:03:39.509Z,3.00
2023-03-29T13:06:10.768Z,3.40
2023-03-29T13:08:44.941Z,3.20
2023-03-29T13:11:35.007Z,2.90
2023-03-29T13:14:14.826Z,3.40
2023-03-29T13:16:43.751Z,2.90
2023-03-29T13:19:37.297Z,2.90
2023-03-29T13:22:39.319Z,3.70
2023-03-29T13:25:20.148Z,3.40
2023-03-29T13:28:02.696Z,4.50
2023-03-29T13:30:55.344Z,4.90
2023-03-29T13:33:57.638Z,2.70
2023-03-29T13:36:36.582Z,2.90
2023-03-29T13:39:07.213Z,3.70
2023-03-29T13:41:38.789Z,3.30
2023-03-29T13:44:44.583Z,3.50
2023-03-29T13:47:30.159Z,2.90
2023-03-29T13:50:04.143Z,2.60
2023-03-29T13:52:44.832Z,2.90
2023-03-29T13:55:24.456Z,2.60
2023-03-29T13:58:31.260Z,2.80
2023-03-29T14:01:15.243Z,2.80
2023-03-29T14:03:46.084Z,2.80
2023-03-29T14:06:22.433Z,3.60
2023-03-29T14:08:53.363Z,3.80
2023-03-29T14:11:28.761Z,3.10
2023-03-29T14:14:00.321Z,2.40
2023-03-29T14:16:38.398Z,3.00
2023-03-29T14:19:19.762Z,3.40
2023-03-29T14:21:52.388Z,3.20
2023-03-29T14:24:26.142Z,3.30
2023-03-29T14:26:55.409Z,4.10
2023-03-29T14:29:25.599Z,3.00
2023-03-29T14:31:54.263Z,3.40
2023-03-29T14:34:23.338Z,3.30
2023-03-29T14:36:54.313Z,2.90
2023-03-29T14:39:23.787Z,3.30
2023-03-29T14:41:54.545Z,3.80
2023-03-29T14:44:27.591Z,3.30
2023-03-29T14:46:56.676Z,3.80
2023-03-29T14:49:26.543Z,2.80
2023-03-29T14:51:55.964Z,3.30
2023-03-29T14:54:29.141Z,2.60
2023-03-29T14:56:58.317Z,3.50
2023-03-29T14:59:35.638Z,3.00
2023-03-29T15:02:04.697Z,2.80
2023-03-29T15:04:37.661Z,3.10
2023-03-29T15:07:09.965Z,2.50
2023-03-29T15:09:40.279Z,2.80
2023-03-29T15:12:16.209Z,3.50
2023-03-29T15:14:46.436Z,3.10
2023-03-29T15:17:47.007Z,2.90
2023-03-29T15:20:29.148Z,2.80
2023-03-29T15:23:19.318Z,3.60
2023-03-29T15:26:08.903Z,2.90
2023-03-29T15:28:55.751Z,3.50
2023-03-29T15:31:34.890Z,3.20
2023-03-29T15:34:08.479Z,2.90
2023-03-29T15:36:43.894Z,2.40
2023-03-29T15:39:15.678Z,3.30
2023-03-29T15:41:46.823Z,3.20
2023-03-29T15:44:19.998Z,2.90
